Hauptseite
METAR-TAF:

METAR-TAF

Flughäfen :

Flughafen Grenchen

Grenchen, Schweiz

Breite: 47-10-53N, Länge: 007-24-59E, Höhe: 430 m

Beobachtung

Neuester Wetterbericht von vor 13 Minuten, um 02:20 UTC
Wind 2 kt aus Ost/Nordost
Temperatur 1°C
Luftfeuchtigkeit 86%
Luftdruck 1009 hPa
Sichtweite: 5000 m
Geschlossene Wolkendecke in der Höhe von 1100 ft

METAR: LSZG 210220Z AUTO 07002KT 5000 OVC011 01/M01 Q1009

Zeit: 03:33 (02:33 UTC)

Prognose

Neuester Wetterbericht von vor 12 Stunden und 8 Minuten, um 14:25 UTC
Gültige Prognose vom 20 um 15 UTC bis 20 um 24 UTC
Wind 5 kt aus Ost
Sichtweite: 8000 m
Durchbrochene Bewölkung in der Höhe von 1600 ft
Wahrscheinlichkeit 30%
vom 20 um 21 UTC bis 20 um 24 UTC
Sichtweite: 4500 m
Durchbrochene Bewölkung in der Höhe von 1200 ft

TAF: LSZG 201425Z 2015/2024 08005KT 8000 BKN016 PROB30 2021/2024 4500 BKN012

Wetterbeobachtungen und Prognosen von mehr als 4000 Flughäfen (METAR und TAF Bericht).

Die verfügbaren Stationen werden durch gelbe und rote Markierungen auf der Karte dargestellt.

Führen Sie die Maus auf sie, um den Namen der Station zu sehen.

Darauf klicken, um die Beobachtung von Wetterbeobachtungen und Prognosen zu sehen.

Um die Karte zu ändern : klicken Sie auf den grünen Tasten mit einem schwarzen Kreuz Zum Vergrößern, auf den grünen Button mit einem Gedankenstrich zu verkleinern, oder auf die grünen Pfeile für benachbarte Karten.


METAR-TAF: